Terminal Aerodrome Forecast
Issued by NWS

Home | Current Version | Previous Version | Text Only | Print | Product List | Glossary On
Versions: 1 2 3 4 5 6 7 8 9 10 11 12 13 14 15 16 17 18 19 20 21 22 23 24 25 26 27 28 29 30 31 32 33 34 35 36 37 38 39 40
000
FTUS44 KHGX 011145 RRA
TAFCXO
TAF
KCXO 011145Z 0112/0212 01004KT P6SM VCSH OVC008
      TEMPO 0112/0115 2SM SHRA BR SCT004 OVC012
     FM012100 03006KT 6SM -RA BR VCSH OVC009
     FM020100 02004KT 4SM -RA BR VCSH OVC004
     FM020900 01005KT 2SM -RA BR VCSH OVC002=

USA.gov is the U.S. government's official web portal to all federal, state and local government web resources and services.